createdAt,value
2023-05-07T00:00:09.615Z,9.50
2023-05-07T00:02:38.440Z,9.50
2023-05-07T00:05:07.654Z,9.40
2023-05-07T00:07:35.684Z,9.40
2023-05-07T00:10:05.644Z,9.40
2023-05-07T00:12:34.843Z,9.40
2023-05-07T00:15:03.799Z,9.40
2023-05-07T00:17:32.043Z,9.40
2023-05-07T00:20:00.447Z,9.50
2023-05-07T00:22:28.501Z,9.40
2023-05-07T00:24:56.900Z,9.50
2023-05-07T00:27:26.393Z,9.50
2023-05-07T00:29:54.723Z,9.50
2023-05-07T00:32:23.050Z,9.50
2023-05-07T00:34:52.166Z,9.50
2023-05-07T00:37:20.483Z,9.50
2023-05-07T00:39:48.836Z,9.40
2023-05-07T00:42:17.252Z,9.50
2023-05-07T00:44:47.463Z,9.50
2023-05-07T00:47:16.402Z,9.40
2023-05-07T00:49:45.182Z,9.40
2023-05-07T00:52:15.252Z,9.40
2023-05-07T00:54:43.937Z,9.50
2023-05-07T00:57:12.571Z,9.50
2023-05-07T00:59:41.893Z,9.50
2023-05-07T01:02:12.224Z,9.50
2023-05-07T01:04:41.504Z,9.50
2023-05-07T01:07:10.499Z,9.60
2023-05-07T01:09:39.092Z,9.60
2023-05-07T01:12:08.682Z,9.60
2023-05-07T01:14:37.131Z,9.50
2023-05-07T01:17:05.582Z,9.60
2023-05-07T01:19:35.019Z,9.60
2023-05-07T01:22:05.247Z,9.50
2023-05-07T01:24:40.135Z,9.50
2023-05-07T01:27:09.818Z,9.50
2023-05-07T01:29:38.885Z,9.50
2023-05-07T01:32:07.500Z,9.40
2023-05-07T01:34:36.941Z,9.40
2023-05-07T01:37:05.466Z,9.40
2023-05-07T01:39:33.965Z,9.50
2023-05-07T01:42:03.702Z,9.60
2023-05-07T01:44:31.728Z,9.60
2023-05-07T01:47:00.817Z,9.60
2023-05-07T01:49:28.886Z,9.60
2023-05-07T01:51:57.836Z,9.50
2023-05-07T01:54:28.634Z,9.50
2023-05-07T01:56:58.574Z,9.40
2023-05-07T01:59:28.244Z,9.40
2023-05-07T02:01:56.960Z,9.40
2023-05-07T02:04:25.758Z,9.40
2023-05-07T02:06:55.435Z,9.40
2023-05-07T02:09:23.978Z,9.40
2023-05-07T02:11:53.256Z,9.50
2023-05-07T02:14:22.680Z,9.50
2023-05-07T02:16:52.493Z,9.50
2023-05-07T02:19:22.164Z,9.50
2023-05-07T02:21:51.748Z,9.40
2023-05-07T02:24:19.821Z,9.40
2023-05-07T02:26:47.877Z,9.30
2023-05-07T02:29:16.226Z,9.30
2023-05-07T02:31:44.962Z,9.20
2023-05-07T02:34:14.655Z,9.30
2023-05-07T02:36:43.025Z,9.30
2023-05-07T02:39:14.000Z,9.30
2023-05-07T02:41:42.553Z,9.30
2023-05-07T02:44:10.842Z,9.30
2023-05-07T02:46:40.133Z,9.30
2023-05-07T02:49:11.797Z,9.30
2023-05-07T02:51:41.690Z,9.20
2023-05-07T02:54:14.631Z,9.20
2023-05-07T02:56:42.662Z,9.20
2023-05-07T02:59:11.398Z,9.20
2023-05-07T03:01:45.031Z,9.20
2023-05-07T03:04:14.534Z,9.20
2023-05-07T03:06:44.241Z,9.20
2023-05-07T03:09:13.074Z,9.30
2023-05-07T03:11:41.235Z,9.20
2023-05-07T03:14:09.300Z,9.30
2023-05-07T03:16:37.920Z,9.30
2023-05-07T03:19:06.312Z,9.30
2023-05-07T03:21:35.374Z,9.30
2023-05-07T03:24:05.318Z,9.30
2023-05-07T03:26:33.644Z,9.20
2023-05-07T03:29:02.176Z,9.20
2023-05-07T03:31:31.000Z,9.30
2023-05-07T03:33:59.968Z,9.30
2023-05-07T03:36:28.844Z,9.30
2023-05-07T03:38:57.975Z,9.30
2023-05-07T03:41:30.767Z,9.30
2023-05-07T03:43:59.169Z,9.30
2023-05-07T03:46:27.466Z,9.30
2023-05-07T03:48:56.533Z,9.30
2023-05-07T03:51:25.155Z,9.40
2023-05-07T03:53:54.001Z,9.40
2023-05-07T03:56:22.995Z,9.40
2023-05-07T03:58:57.152Z,9.40
2023-05-07T04:01:25.152Z,9.50
2023-05-07T04:03:53.797Z,9.50
2023-05-07T04:06:22.201Z,9.50
2023-05-07T04:08:51.196Z,9.50
2023-05-07T04:11:19.580Z,9.60
2023-05-07T04:13:48.711Z,9.60
2023-05-07T04:16:22.220Z,9.60
2023-05-07T04:18:50.972Z,9.60
2023-05-07T04:21:19.699Z,9.50
2023-05-07T04:23:49.209Z,9.40
2023-05-07T04:26:17.989Z,9.40
2023-05-07T04:28:47.056Z,9.40
2023-05-07T04:31:16.962Z,9.40
2023-05-07T04:33:48.630Z,9.50
2023-05-07T04:36:17.500Z,9.50
2023-05-07T04:38:51.355Z,9.50
2023-05-07T04:41:21.611Z,9.60
2023-05-07T04:43:50.621Z,9.60
2023-05-07T04:46:20.442Z,9.70
2023-05-07T04:48:51.717Z,9.70
2023-05-07T04:51:19.967Z,9.70
2023-05-07T04:53:48.652Z,9.70
2023-05-07T04:56:16.944Z,9.80
2023-05-07T04:58:47.090Z,9.70
2023-05-07T05:01:17.503Z,9.70
2023-05-07T05:03:46.755Z,9.70
2023-05-07T05:06:16.157Z,9.60
2023-05-07T05:08:44.483Z,9.60
2023-05-07T05:11:12.829Z,9.50
2023-05-07T05:13:41.202Z,9.60
2023-05-07T05:16:14.524Z,9.60
2023-05-07T05:18:43.040Z,9.70
2023-05-07T05:21:13.413Z,9.60
2023-05-07T05:23:44.716Z,9.60
2023-05-07T05:26:14.475Z,9.60
2023-05-07T05:28:43.215Z,9.60
2023-05-07T05:31:11.624Z,9.60
2023-05-07T05:33:39.951Z,9.60
2023-05-07T05:36:11.190Z,9.60
2023-05-07T05:38:40.240Z,9.60
2023-05-07T05:41:11.365Z,9.60
2023-05-07T05:43:39.373Z,9.70
2023-05-07T05:46:09.902Z,9.70
2023-05-07T05:48:37.927Z,9.80
2023-05-07T05:51:07.435Z,9.80
2023-05-07T05:53:35.559Z,9.90
2023-05-07T05:56:04.594Z,9.90
2023-05-07T05:58:35.286Z,10.00
2023-05-07T06:01:07.251Z,10.00
2023-05-07T06:03:37.654Z,10.00
2023-05-07T06:06:11.116Z,10.00
2023-05-07T06:08:39.151Z,10.00
2023-05-07T06:11:07.482Z,10.00
2023-05-07T06:13:40.071Z,10.00
2023-05-07T06:16:08.803Z,10.00
2023-05-07T06:18:37.069Z,10.00
2023-05-07T06:21:06.123Z,10.10
2023-05-07T06:23:36.153Z,10.10
2023-05-07T06:26:06.100Z,10.10
2023-05-07T06:28:40.852Z,10.20
2023-05-07T06:31:13.702Z,10.30
2023-05-07T06:33:42.535Z,10.40
2023-05-07T06:36:11.764Z,10.60
2023-05-07T06:38:41.001Z,10.70
2023-05-07T06:41:09.067Z,10.60
2023-05-07T06:43:41.529Z,10.60
2023-05-07T06:46:26.803Z,10.60
2023-05-07T06:48:54.860Z,10.50
2023-05-07T06:51:22.844Z,10.70
2023-05-07T06:53:51.341Z,10.60
2023-05-07T06:56:19.434Z,10.60
2023-05-07T06:58:49.197Z,10.70
2023-05-07T07:01:18.464Z,10.60
2023-05-07T07:03:46.800Z,10.60
2023-05-07T07:06:15.192Z,10.50
2023-05-07T07:08:43.655Z,10.50
2023-05-07T07:11:15.779Z,10.50
2023-05-07T07:13:44.649Z,10.60
2023-05-07T07:16:14.410Z,10.70
2023-05-07T07:18:42.688Z,10.60
2023-05-07T07:21:10.746Z,10.60
2023-05-07T07:23:39.251Z,10.50
2023-05-07T07:26:07.748Z,10.50
2023-05-07T07:28:36.144Z,10.60
2023-05-07T07:31:05.628Z,10.80
2023-05-07T07:33:35.418Z,10.90
2023-05-07T07:36:03.972Z,11.20
2023-05-07T07:38:32.219Z,11.30
2023-05-07T07:41:00.786Z,11.30
2023-05-07T07:43:30.367Z,11.30
2023-05-07T07:45:58.600Z,11.30
2023-05-07T07:48:28.027Z,11.30
2023-05-07T07:50:57.825Z,11.30
2023-05-07T07:53:26.329Z,11.30
2023-05-07T07:55:58.939Z,11.30
2023-05-07T07:58:31.176Z,11.20
2023-05-07T08:00:59.783Z,11.30
2023-05-07T08:03:29.152Z,11.30
2023-05-07T08:06:01.522Z,11.30
2023-05-07T08:08:30.230Z,11.30
2023-05-07T08:10:58.743Z,11.30
2023-05-07T08:13:31.856Z,11.30
2023-05-07T08:16:00.683Z,11.40
2023-05-07T08:18:29.996Z,11.40
2023-05-07T08:21:01.286Z,11.30
2023-05-07T08:23:29.542Z,11.30
2023-05-07T08:25:58.056Z,11.50
2023-05-07T08:28:27.694Z,11.60
2023-05-07T08:30:57.595Z,11.60
2023-05-07T08:33:26.707Z,11.50
2023-05-07T08:35:54.755Z,11.40
2023-05-07T08:38:24.882Z,11.30
2023-05-07T08:40:52.952Z,11.30
2023-05-07T08:43:23.675Z,11.30
2023-05-07T08:45:56.004Z,11.30
2023-05-07T08:48:27.788Z,11.40
2023-05-07T08:51:04.578Z,11.30
2023-05-07T08:53:35.254Z,11.30
2023-05-07T08:56:04.474Z,11.30
2023-05-07T08:58:32.834Z,11.20
2023-05-07T09:01:02.708Z,11.20
2023-05-07T09:03:32.575Z,11.20
2023-05-07T09:06:01.015Z,11.10
2023-05-07T09:08:30.271Z,11.20
2023-05-07T09:11:03.513Z,11.30
2023-05-07T09:13:32.080Z,11.30
2023-05-07T09:16:12.088Z,11.30
2023-05-07T09:18:45.817Z,11.40
2023-05-07T09:21:17.350Z,11.50
2023-05-07T09:23:46.907Z,11.70
2023-05-07T09:26:17.662Z,11.70
2023-05-07T09:28:47.533Z,11.80
2023-05-07T09:31:18.232Z,11.70
2023-05-07T09:33:48.860Z,11.70
2023-05-07T09:36:18.065Z,11.60
2023-05-07T09:38:47.297Z,11.50
2023-05-07T09:41:17.158Z,11.40
2023-05-07T09:43:55.983Z,11.40
2023-05-07T09:46:31.775Z,11.50
2023-05-07T09:49:04.327Z,11.60
2023-05-07T09:51:39.321Z,11.70
2023-05-07T09:54:08.403Z,11.80
2023-05-07T09:56:42.676Z,11.80
2023-05-07T09:59:12.652Z,11.70
2023-05-07T10:01:43.211Z,11.70
2023-05-07T10:04:12.242Z,11.70
2023-05-07T10:06:42.709Z,11.80
2023-05-07T10:09:12.212Z,11.90
2023-05-07T10:11:43.031Z,12.00
2023-05-07T10:14:12.229Z,12.10
2023-05-07T10:16:42.998Z,12.10
2023-05-07T10:19:16.466Z,12.20
2023-05-07T10:21:53.376Z,12.30
2023-05-07T10:24:22.397Z,12.40
2023-05-07T10:26:53.276Z,12.30
2023-05-07T10:29:27.064Z,12.30
2023-05-07T10:32:01.077Z,12.50
2023-05-07T10:34:31.875Z,12.50
2023-05-07T10:37:00.401Z,12.30
2023-05-07T10:39:29.065Z,12.30
2023-05-07T10:41:59.343Z,12.50
2023-05-07T10:44:27.906Z,12.70
2023-05-07T10:47:15.435Z,12.70
2023-05-07T10:50:06.065Z,12.50
2023-05-07T10:52:37.911Z,12.40
2023-05-07T10:55:26.044Z,12.40
2023-05-07T10:58:32.541Z,12.20
2023-05-07T11:01:15.473Z,12.10
2023-05-07T11:03:59.068Z,12.30
2023-05-07T11:06:28.854Z,12.50
2023-05-07T11:09:03.055Z,12.60
2023-05-07T11:11:54.130Z,12.60
2023-05-07T11:14:47.297Z,12.70
2023-05-07T11:17:22.999Z,12.70
2023-05-07T11:19:58.728Z,12.80
2023-05-07T11:22:42.457Z,12.70
2023-05-07T11:25:19.610Z,12.90
2023-05-07T11:27:51.322Z,12.90
2023-05-07T11:30:21.602Z,13.00
2023-05-07T11:32:50.245Z,13.10
2023-05-07T11:35:20.085Z,13.10
2023-05-07T11:37:50.366Z,13.00
2023-05-07T11:40:18.893Z,13.00
2023-05-07T11:42:46.970Z,13.20
2023-05-07T11:45:25.013Z,13.30
2023-05-07T11:47:54.590Z,13.50
2023-05-07T11:50:23.229Z,13.40
2023-05-07T11:52:52.965Z,13.20
2023-05-07T11:55:22.909Z,12.90
2023-05-07T11:57:51.326Z,12.70
2023-05-07T12:00:19.844Z,12.60
2023-05-07T12:02:47.993Z,12.80
2023-05-07T12:05:17.940Z,12.90
2023-05-07T12:07:46.115Z,13.00
2023-05-07T12:10:15.152Z,13.10
2023-05-07T12:12:43.917Z,13.30
2023-05-07T12:15:12.651Z,13.20
2023-05-07T12:17:41.517Z,13.10
2023-05-07T12:20:10.425Z,13.10
2023-05-07T12:22:40.379Z,13.30
2023-05-07T12:25:09.277Z,13.50
2023-05-07T12:27:39.117Z,13.60
2023-05-07T12:30:07.989Z,13.60
2023-05-07T12:32:38.295Z,13.80
2023-05-07T12:35:08.299Z,13.90
2023-05-07T12:37:37.769Z,13.90
2023-05-07T12:40:08.556Z,13.90
2023-05-07T12:42:37.908Z,13.90
2023-05-07T12:45:13.011Z,13.70
2023-05-07T12:47:45.425Z,13.50
2023-05-07T12:50:15.032Z,13.70
2023-05-07T12:52:43.117Z,13.90
2023-05-07T12:55:15.816Z,14.20
2023-05-07T12:57:44.789Z,14.50
2023-05-07T13:00:13.942Z,14.70
2023-05-07T13:02:45.443Z,14.50
2023-05-07T13:05:13.967Z,14.60
2023-05-07T13:07:42.892Z,14.60
2023-05-07T13:10:12.469Z,14.60
2023-05-07T13:12:40.905Z,14.50
2023-05-07T13:15:09.497Z,14.50
2023-05-07T13:17:37.724Z,14.50
2023-05-07T13:20:06.514Z,14.60
2023-05-07T13:22:34.873Z,14.90
2023-05-07T13:25:03.080Z,14.80
2023-05-07T13:27:32.871Z,14.40
2023-05-07T13:30:01.019Z,14.50
2023-05-07T13:32:29.199Z,14.60
2023-05-07T13:34:57.235Z,14.70
2023-05-07T13:37:25.617Z,14.50
2023-05-07T13:39:53.668Z,14.60
2023-05-07T13:42:22.031Z,14.70
2023-05-07T13:44:51.843Z,14.70
2023-05-07T13:47:21.101Z,14.80
2023-05-07T13:49:51.453Z,14.50
2023-05-07T13:52:20.031Z,14.40
2023-05-07T13:54:48.514Z,14.40
2023-05-07T13:57:16.979Z,14.40
2023-05-07T13:59:44.969Z,14.40
2023-05-07T14:02:14.660Z,14.40
2023-05-07T14:04:42.696Z,14.40
2023-05-07T14:07:11.648Z,14.40
2023-05-07T14:09:39.685Z,14.40
2023-05-07T14:12:08.341Z,14.40
2023-05-07T14:14:36.843Z,14.30
2023-05-07T14:17:05.287Z,14.40
2023-05-07T14:19:35.012Z,14.50
2023-05-07T14:22:03.563Z,14.50
2023-05-07T14:24:38.172Z,14.50
2023-05-07T14:27:07.249Z,14.50
2023-05-07T14:29:36.570Z,14.50
2023-05-07T14:32:05.122Z,14.50
2023-05-07T14:34:33.498Z,14.70
2023-05-07T14:37:03.555Z,14.80
2023-05-07T14:39:32.024Z,14.60
2023-05-07T14:42:00.786Z,14.70
2023-05-07T14:44:28.819Z,14.70
2023-05-07T14:47:02.000Z,14.80
2023-05-07T14:49:30.933Z,14.80
2023-05-07T14:51:59.517Z,14.70
2023-05-07T14:54:29.430Z,14.70
2023-05-07T14:56:57.890Z,14.60
2023-05-07T14:59:26.288Z,14.70
2023-05-07T15:01:54.325Z,14.70
2023-05-07T15:04:22.862Z,14.70
2023-05-07T15:06:50.917Z,14.80
2023-05-07T15:09:19.207Z,14.80
2023-05-07T15:11:48.625Z,14.60
2023-05-07T15:14:17.157Z,14.70
2023-05-07T15:16:45.305Z,14.50
2023-05-07T15:19:15.755Z,14.40
2023-05-07T15:21:44.060Z,14.30
2023-05-07T15:24:12.145Z,14.30
2023-05-07T15:26:41.833Z,14.30
2023-05-07T15:29:11.625Z,14.40
2023-05-07T15:31:40.320Z,14.30
2023-05-07T15:34:08.776Z,14.30
2023-05-07T15:36:36.799Z,14.20
2023-05-07T15:39:05.497Z,14.00
2023-05-07T15:41:33.569Z,14.00
2023-05-07T15:44:02.162Z,14.00
2023-05-07T15:46:31.967Z,14.10
2023-05-07T15:49:03.498Z,14.00
2023-05-07T15:51:31.922Z,14.10
2023-05-07T15:54:00.315Z,14.10
2023-05-07T15:56:28.400Z,14.00
2023-05-07T15:58:57.668Z,13.90
2023-05-07T16:01:26.298Z,13.80
2023-05-07T16:03:56.432Z,13.80
2023-05-07T16:06:24.784Z,13.60
2023-05-07T16:08:53.210Z,13.60
2023-05-07T16:11:22.153Z,13.60
2023-05-07T16:13:50.543Z,13.50
2023-05-07T16:16:19.332Z,13.40
2023-05-07T16:18:47.647Z,13.40
2023-05-07T16:21:17.693Z,13.40
2023-05-07T16:23:46.256Z,13.40
2023-05-07T16:26:14.822Z,13.20
2023-05-07T16:28:43.178Z,13.10
2023-05-07T16:31:11.572Z,12.90
2023-05-07T16:33:39.883Z,12.90
2023-05-07T16:36:08.508Z,12.80
2023-05-07T16:38:38.701Z,12.70
2023-05-07T16:41:07.212Z,12.70
2023-05-07T16:43:35.529Z,12.60
2023-05-07T16:46:04.027Z,12.60
2023-05-07T16:48:32.438Z,12.70
2023-05-07T16:51:00.715Z,12.70
2023-05-07T16:53:28.709Z,12.70
2023-05-07T16:55:58.489Z,12.60
2023-05-07T16:58:28.083Z,12.60
2023-05-07T17:00:56.475Z,12.60
2023-05-07T17:03:24.596Z,12.60
2023-05-07T17:05:52.979Z,12.50
2023-05-07T17:08:20.922Z,12.50
2023-05-07T17:10:49.210Z,12.40
2023-05-07T17:13:18.540Z,12.40
2023-05-07T17:15:47.780Z,12.30
2023-05-07T17:18:15.866Z,12.20
2023-05-07T17:20:44.265Z,12.20
2023-05-07T17:23:12.258Z,12.10
2023-05-07T17:25:45.455Z,12.10
2023-05-07T17:28:13.541Z,12.10
2023-05-07T17:30:43.597Z,12.00
2023-05-07T17:33:21.001Z,12.00
2023-05-07T17:35:50.584Z,12.00
2023-05-07T17:38:18.593Z,11.90
2023-05-07T17:40:47.008Z,11.80
2023-05-07T17:43:15.011Z,11.80
2023-05-07T17:45:44.746Z,11.70
2023-05-07T17:48:12.887Z,11.70
2023-05-07T17:50:41.132Z,11.70
2023-05-07T17:53:09.885Z,11.60
2023-05-07T17:55:42.318Z,11.60
2023-05-07T17:58:10.857Z,11.50
2023-05-07T18:00:39.211Z,11.40
2023-05-07T18:03:08.978Z,11.40
2023-05-07T18:05:37.838Z,11.30
2023-05-07T18:08:06.412Z,11.30
2023-05-07T18:10:34.686Z,11.20
2023-05-07T18:13:03.437Z,11.20
2023-05-07T18:15:31.670Z,11.10
2023-05-07T18:18:00.058Z,11.10
2023-05-07T18:20:29.482Z,11.10
2023-05-07T18:22:57.665Z,11.10
2023-05-07T18:25:25.774Z,11.00
2023-05-07T18:27:54.095Z,10.90
2023-05-07T18:30:23.222Z,10.90
2023-05-07T18:32:51.524Z,10.80
2023-05-07T18:35:19.701Z,10.80
2023-05-07T18:37:49.398Z,10.70
2023-05-07T18:40:17.421Z,10.70
2023-05-07T18:42:45.834Z,10.60
2023-05-07T18:45:13.853Z,10.50
2023-05-07T18:47:42.229Z,10.50
2023-05-07T18:50:10.876Z,10.40
2023-05-07T18:52:39.332Z,10.40
2023-05-07T18:55:10.727Z,10.30
2023-05-07T18:57:38.981Z,10.30
2023-05-07T19:00:09.464Z,10.20
2023-05-07T19:02:38.079Z,10.20
2023-05-07T19:05:06.630Z,10.10
2023-05-07T19:07:35.067Z,10.10
2023-05-07T19:10:06.022Z,10.00
2023-05-07T19:12:36.091Z,10.00
2023-05-07T19:15:04.259Z,9.90
2023-05-07T19:17:32.567Z,9.90
2023-05-07T19:20:00.546Z,9.80
2023-05-07T19:22:28.811Z,9.80
2023-05-07T19:24:56.787Z,9.80
2023-05-07T19:27:25.072Z,9.70
2023-05-07T19:29:54.370Z,9.70
2023-05-07T19:32:22.818Z,9.70
2023-05-07T19:34:50.879Z,9.60
2023-05-07T19:37:22.888Z,9.60
2023-05-07T19:39:50.928Z,9.60
2023-05-07T19:42:19.542Z,9.50
2023-05-07T19:44:47.650Z,9.50
2023-05-07T19:47:17.743Z,9.40
2023-05-07T19:49:46.317Z,9.40
2023-05-07T19:52:14.321Z,9.40
2023-05-07T19:54:42.657Z,9.30
2023-05-07T19:57:11.029Z,9.30
2023-05-07T19:59:39.389Z,9.30
2023-05-07T20:02:08.209Z,9.20
2023-05-07T20:04:38.378Z,9.20
2023-05-07T20:07:07.439Z,9.20
2023-05-07T20:09:35.442Z,9.10
2023-05-07T20:12:03.401Z,9.10
2023-05-07T20:14:32.118Z,9.10
2023-05-07T20:17:00.082Z,9.10
2023-05-07T20:19:28.372Z,9.10
2023-05-07T20:21:57.820Z,9.10
2023-05-07T20:24:26.259Z,9.00
2023-05-07T20:26:54.254Z,9.00
2023-05-07T20:29:23.329Z,9.00
2023-05-07T20:31:51.632Z,9.00
2023-05-07T20:34:20.447Z,8.90
2023-05-07T20:36:48.404Z,8.90
2023-05-07T20:39:18.594Z,8.90
2023-05-07T20:41:46.559Z,8.90
2023-05-07T20:44:14.867Z,8.90
2023-05-07T20:46:43.849Z,8.80
2023-05-07T20:49:14.888Z,8.80
2023-05-07T20:51:42.948Z,8.80
2023-05-07T20:54:12.999Z,8.80
2023-05-07T20:56:42.299Z,8.80
2023-05-07T20:59:10.618Z,8.70
2023-05-07T21:01:40.677Z,8.70
2023-05-07T21:04:09.060Z,8.70
2023-05-07T21:06:37.082Z,8.70
2023-05-07T21:09:05.415Z,8.60
2023-05-07T21:11:33.391Z,8.60
2023-05-07T21:14:04.184Z,8.60
2023-05-07T21:16:32.163Z,8.60
2023-05-07T21:19:00.536Z,8.60
2023-05-07T21:21:28.552Z,8.60
2023-05-07T21:23:56.831Z,8.60
2023-05-07T21:26:24.982Z,8.60
2023-05-07T21:28:53.883Z,8.50
2023-05-07T21:31:23.330Z,8.50
2023-05-07T21:33:53.145Z,8.50
2023-05-07T21:36:21.531Z,8.50
2023-05-07T21:38:49.832Z,8.40
2023-05-07T21:41:20.383Z,8.40
2023-05-07T21:43:48.678Z,8.40
2023-05-07T21:46:17.004Z,8.40
2023-05-07T21:48:46.689Z,8.50
2023-05-07T21:51:15.116Z,8.40
2023-05-07T21:53:43.525Z,8.40
2023-05-07T21:56:11.928Z,8.40
2023-05-07T21:58:40.543Z,8.40
2023-05-07T22:01:12.362Z,8.30
2023-05-07T22:03:41.134Z,8.30
2023-05-07T22:06:11.289Z,8.30
2023-05-07T22:08:39.282Z,8.30
2023-05-07T22:11:08.046Z,8.30
2023-05-07T22:13:36.165Z,8.30
2023-05-07T22:16:04.840Z,8.20
2023-05-07T22:18:32.841Z,8.20
2023-05-07T22:21:01.180Z,8.20
2023-05-07T22:23:30.522Z,8.10
2023-05-07T22:25:58.952Z,8.10
2023-05-07T22:28:26.928Z,8.10
2023-05-07T22:30:55.670Z,8.10
2023-05-07T22:33:23.639Z,8.10
2023-05-07T22:35:51.989Z,8.00
2023-05-07T22:38:19.976Z,8.00
2023-05-07T22:40:50.097Z,8.00
2023-05-07T22:43:18.057Z,7.90
2023-05-07T22:45:46.374Z,7.90
2023-05-07T22:48:14.788Z,7.90
2023-05-07T22:50:43.209Z,7.90
2023-05-07T22:53:11.238Z,7.90
2023-05-07T22:55:39.971Z,7.90
2023-05-07T22:58:09.368Z,7.80
2023-05-07T23:00:37.867Z,7.80
2023-05-07T23:03:06.052Z,7.80
2023-05-07T23:05:34.849Z,7.80
2023-05-07T23:08:03.390Z,7.80
2023-05-07T23:10:34.500Z,7.70
2023-05-07T23:13:02.850Z,7.70
2023-05-07T23:15:33.404Z,7.70
2023-05-07T23:18:01.503Z,7.70
2023-05-07T23:20:29.858Z,7.70
2023-05-07T23:22:57.849Z,7.70
2023-05-07T23:25:26.708Z,7.60
2023-05-07T23:27:54.720Z,7.60
2023-05-07T23:30:23.612Z,7.60
2023-05-07T23:32:53.046Z,7.60
2023-05-07T23:35:21.889Z,7.60
2023-05-07T23:37:49.962Z,7.60
2023-05-07T23:40:18.792Z,7.50
2023-05-07T23:42:46.768Z,7.50
2023-05-07T23:45:15.247Z,7.50
2023-05-07T23:47:43.771Z,7.50
2023-05-07T23:50:13.905Z,7.40
2023-05-07T23:52:42.079Z,7.40
2023-05-07T23:55:10.938Z,7.40
2023-05-07T23:57:38.928Z,7.40
